sensor_id;sensor_type;location;lat;lon;timestamp;pressure;altitude;pressure_sealevel;temperature;humidity
45255;BME280;30989;52.078;21.014;2022-08-05T00:01:12;168771.22;;;19.06;76.51
45255;BME280;30989;52.078;21.014;2022-08-05T00:03:38;168753.72;;;18.99;76.63
45255;BME280;30989;52.078;21.014;2022-08-05T00:06:04;168756.41;;;19.00;76.67
45255;BME280;30989;52.078;21.014;2022-08-05T00:08:29;168753.72;;;18.99;76.82
45255;BME280;30989;52.078;21.014;2022-08-05T00:10:59;168749.69;;;18.97;77.20
45255;BME280;30989;52.078;21.014;2022-08-05T00:13:24;168737.56;;;18.93;77.14
45255;BME280;30989;52.078;21.014;2022-08-05T00:15:50;168722.78;;;18.87;77.48
45255;BME280;30989;52.078;21.014;2022-08-05T00:18:15;168695.84;;;18.77;77.44
45255;BME280;30989;52.078;21.014;2022-08-05T00:20:41;168707.97;;;18.82;77.63
45255;BME280;30989;52.078;21.014;2022-08-05T00:23:06;168691.81;;;18.76;78.11
45255;BME280;30989;52.078;21.014;2022-08-05T00:25:32;168671.63;;;18.68;77.93
45255;BME280;30989;52.078;21.014;2022-08-05T00:27:58;168685.09;;;18.73;78.27
45255;BME280;30989;52.078;21.014;2022-08-05T00:30:24;168658.16;;;18.63;78.27
45255;BME280;30989;52.078;21.014;2022-08-05T00:32:50;168679.69;;;18.71;78.56
45255;BME280;30989;52.078;21.014;2022-08-05T00:35:16;168666.25;;;18.66;78.63
45255;BME280;30989;52.078;21.014;2022-08-05T00:37:42;168668.94;;;18.67;78.98
45255;BME280;30989;52.078;21.014;2022-08-05T00:40:08;168663.56;;;18.65;79.32
45255;BME280;30989;52.078;21.014;2022-08-05T00:42:35;168658.16;;;18.63;79.96
45255;BME280;30989;52.078;21.014;2022-08-05T00:45:03;168652.78;;;18.61;79.97
45255;BME280;30989;52.078;21.014;2022-08-05T00:47:29;168654.13;;;18.61;80.03
45255;BME280;30989;52.078;21.014;2022-08-05T00:49:54;168646.00;;;18.58;80.31
45255;BME280;30989;52.078;21.014;2022-08-05T00:52:20;168637.94;;;18.55;80.29
45255;BME280;30989;52.078;21.014;2022-08-05T00:54:47;168624.47;;;18.50;80.78
45255;BME280;30989;52.078;21.014;2022-08-05T00:57:13;168632.56;;;18.53;80.85
45255;BME280;30989;52.078;21.014;2022-08-05T00:59:39;168617.75;;;18.48;81.16
45255;BME280;30989;52.078;21.014;2022-08-05T01:02:05;168617.75;;;18.48;81.54
45255;BME280;30989;52.078;21.014;2022-08-05T01:04:31;168598.91;;;18.41;81.74
45255;BME280;30989;52.078;21.014;2022-08-05T01:06:56;168580.06;;;18.33;81.64
45255;BME280;30989;52.078;21.014;2022-08-05T01:09:22;168593.53;;;18.39;81.80
45255;BME280;30989;52.078;21.014;2022-08-05T01:11:50;168585.44;;;18.35;81.98
45255;BME280;30989;52.078;21.014;2022-08-05T01:17:05;168577.38;;;18.32;82.95
45255;BME280;30989;52.078;21.014;2022-08-05T01:19:53;168572.00;;;18.30;82.65
45255;BME280;30989;52.078;21.014;2022-08-05T01:22:42;168566.63;;;18.28;83.22
45255;BME280;30989;52.078;21.014;2022-08-05T01:28:15;168550.47;;;18.22;83.30
45255;BME280;30989;52.078;21.014;2022-08-05T01:30:56;168547.78;;;18.21;83.59
45255;BME280;30989;52.078;21.014;2022-08-05T01:33:28;168545.09;;;18.20;84.30
45255;BME280;30989;52.078;21.014;2022-08-05T01:35:57;168510.13;;;18.07;84.43
45255;BME280;30989;52.078;21.014;2022-08-05T01:38:26;168518.19;;;18.10;84.23
45255;BME280;30989;52.078;21.014;2022-08-05T01:40:53;168504.72;;;18.05;84.34
45255;BME280;30989;52.078;21.014;2022-08-05T01:43:20;168503.38;;;18.04;84.88
45255;BME280;30989;52.078;21.014;2022-08-05T01:45:47;168499.34;;;18.03;85.37
45255;BME280;30989;52.078;21.014;2022-08-05T01:48:15;168488.59;;;17.99;85.02
45255;BME280;30989;52.078;21.014;2022-08-05T01:50:42;168483.22;;;17.97;85.31
45255;BME280;30989;52.078;21.014;2022-08-05T01:53:12;168479.19;;;17.95;85.23
45255;BME280;30989;52.078;21.014;2022-08-05T01:55:41;168472.44;;;17.93;85.40
45255;BME280;30989;52.078;21.014;2022-08-05T01:58:09;168459.00;;;17.88;85.40
45255;BME280;30989;52.078;21.014;2022-08-05T02:00:44;168464.38;;;17.90;85.64
45255;BME280;30989;52.078;21.014;2022-08-05T02:03:24;168459.00;;;17.88;85.66
45255;BME280;30989;52.078;21.014;2022-08-05T02:05:52;168452.28;;;17.85;86.15
45255;BME280;30989;52.078;21.014;2022-08-05T02:08:19;168453.63;;;17.86;86.86
45255;BME280;30989;52.078;21.014;2022-08-05T02:10:50;168456.31;;;17.87;86.64
45255;BME280;30989;52.078;21.014;2022-08-05T02:13:22;168452.28;;;17.85;87.12
45255;BME280;30989;52.078;21.014;2022-08-05T02:15:54;168442.84;;;17.82;86.88
45255;BME280;30989;52.078;21.014;2022-08-05T02:18:26;168432.09;;;17.78;87.05
45255;BME280;30989;52.078;21.014;2022-08-05T02:21:14;168434.78;;;17.79;87.31
45255;BME280;30989;52.078;21.014;2022-08-05T02:23:42;168428.06;;;17.76;87.17
45255;BME280;30989;52.078;21.014;2022-08-05T02:26:10;168414.59;;;17.71;87.50
45255;BME280;30989;52.078;21.014;2022-08-05T02:28:40;168411.91;;;17.70;87.69
45255;BME280;30989;52.078;21.014;2022-08-05T02:31:14;168403.84;;;17.67;87.68
45255;BME280;30989;52.078;21.014;2022-08-05T02:33:47;168384.97;;;17.60;87.89
45255;BME280;30989;52.078;21.014;2022-08-05T02:36:16;168380.94;;;17.58;87.91
45255;BME280;30989;52.078;21.014;2022-08-05T02:38:45;168372.88;;;17.55;88.48
45255;BME280;30989;52.078;21.014;2022-08-05T02:41:13;168367.47;;;17.53;88.59
45255;BME280;30989;52.078;21.014;2022-08-05T02:43:40;168364.78;;;17.52;88.99
45255;BME280;30989;52.078;21.014;2022-08-05T02:46:08;168363.44;;;17.52;88.93
45255;BME280;30989;52.078;21.014;2022-08-05T02:48:36;168345.97;;;17.45;89.36
45255;BME280;30989;52.078;21.014;2022-08-05T02:51:03;168344.63;;;17.45;89.58
45255;BME280;30989;52.078;21.014;2022-08-05T02:53:30;168352.69;;;17.48;89.79
45255;BME280;30989;52.078;21.014;2022-08-05T02:55:57;168352.69;;;17.48;89.70
45255;BME280;30989;52.078;21.014;2022-08-05T02:58:23;168351.34;;;17.47;89.53
45255;BME280;30989;52.078;21.014;2022-08-05T03:00:52;168344.63;;;17.45;90.18
45255;BME280;30989;52.078;21.014;2022-08-05T03:03:18;168343.28;;;17.44;89.92
45255;BME280;30989;52.078;21.014;2022-08-05T03:05:46;168340.59;;;17.43;90.44
45255;BME280;30989;52.078;21.014;2022-08-05T03:08:13;168337.91;;;17.42;90.54
45255;BME280;30989;52.078;21.014;2022-08-05T03:10:43;168336.53;;;17.42;91.31
45255;BME280;30989;52.078;21.014;2022-08-05T03:13:17;168344.63;;;17.45;90.97
45255;BME280;30989;52.078;21.014;2022-08-05T03:15:44;168350.00;;;17.47;91.03
45255;BME280;30989;52.078;21.014;2022-08-05T03:18:10;168358.06;;;17.50;91.35
45255;BME280;30989;52.078;21.014;2022-08-05T03:20:36;168362.09;;;17.51;91.42
45255;BME280;30989;52.078;21.014;2022-08-05T03:23:04;168362.09;;;17.51;91.08
45255;BME280;30989;52.078;21.014;2022-08-05T03:25:32;168364.78;;;17.52;91.37
45255;BME280;30989;52.078;21.014;2022-08-05T03:27:59;168370.16;;;17.54;91.88
45255;BME280;30989;52.078;21.014;2022-08-05T03:30:27;168386.31;;;17.60;92.27
45255;BME280;30989;52.078;21.014;2022-08-05T03:32:53;168393.03;;;17.63;92.12
45255;BME280;30989;52.078;21.014;2022-08-05T03:35:21;168376.91;;;17.57;92.22
45255;BME280;30989;52.078;21.014;2022-08-05T03:37:47;168394.38;;;17.63;92.03
45255;BME280;30989;52.078;21.014;2022-08-05T03:40:13;168394.38;;;17.63;92.00
45255;BME280;30989;52.078;21.014;2022-08-05T03:42:38;168417.28;;;17.72;91.45
45255;BME280;30989;52.078;21.014;2022-08-05T03:45:06;168417.28;;;17.72;91.75
45255;BME280;30989;52.078;21.014;2022-08-05T03:47:31;168422.69;;;17.74;91.88
45255;BME280;30989;52.078;21.014;2022-08-05T03:49:57;168417.28;;;17.72;91.93
45255;BME280;30989;52.078;21.014;2022-08-05T03:52:28;168422.69;;;17.74;91.84
45255;BME280;30989;52.078;21.014;2022-08-05T03:55:01;168421.34;;;17.74;92.22
45255;BME280;30989;52.078;21.014;2022-08-05T03:57:30;168428.06;;;17.76;91.92
45255;BME280;30989;52.078;21.014;2022-08-05T04:00:08;168407.88;;;17.68;92.05
45255;BME280;30989;52.078;21.014;2022-08-05T04:02:39;168432.09;;;17.78;92.22
45255;BME280;30989;52.078;21.014;2022-08-05T04:05:08;168442.84;;;17.82;91.90
45255;BME280;30989;52.078;21.014;2022-08-05T04:07:34;168450.91;;;17.85;91.72
45255;BME280;30989;52.078;21.014;2022-08-05T04:10:01;168440.16;;;17.81;91.72
45255;BME280;30989;52.078;21.014;2022-08-05T04:12:27;168469.75;;;17.92;91.98
45255;BME280;30989;52.078;21.014;2022-08-05T04:14:53;168481.88;;;17.96;92.21
45255;BME280;30989;52.078;21.014;2022-08-05T04:17:19;168489.94;;;17.99;91.69
45255;BME280;30989;52.078;21.014;2022-08-05T04:19:46;168477.81;;;17.95;91.60
45255;BME280;30989;52.078;21.014;2022-08-05T04:22:12;168488.59;;;17.99;91.56
45255;BME280;30989;52.078;21.014;2022-08-05T04:24:43;168510.13;;;18.07;91.65
45255;BME280;30989;52.078;21.014;2022-08-05T04:27:09;168523.56;;;18.12;91.74
45255;BME280;30989;52.078;21.014;2022-08-05T04:29:35;168535.69;;;18.17;91.83
45255;BME280;30989;52.078;21.014;2022-08-05T04:32:00;168558.53;;;18.25;91.90
45255;BME280;30989;52.078;21.014;2022-08-05T04:34:26;168576.03;;;18.32;91.83
45255;BME280;30989;52.078;21.014;2022-08-05T04:36:52;168580.06;;;18.33;92.07
45255;BME280;30989;52.078;21.014;2022-08-05T04:39:18;168604.28;;;18.43;91.93
45255;BME280;30989;52.078;21.014;2022-08-05T04:41:44;168632.56;;;18.53;91.80
45255;BME280;30989;52.078;21.014;2022-08-05T04:44:10;168652.78;;;18.61;91.77
45255;BME280;30989;52.078;21.014;2022-08-05T04:46:36;168666.25;;;18.66;91.28
45255;BME280;30989;52.078;21.014;2022-08-05T04:49:03;168685.09;;;18.73;91.98
45255;BME280;30989;52.078;21.014;2022-08-05T04:51:28;168702.59;;;18.80;91.68
45255;BME280;30989;52.078;21.014;2022-08-05T04:53:54;168724.13;;;18.88;91.50
45255;BME280;30989;52.078;21.014;2022-08-05T04:56:19;168745.66;;;18.96;91.25
45255;BME280;30989;52.078;21.014;2022-08-05T04:58:45;168760.47;;;19.02;91.13
45255;BME280;30989;52.078;21.014;2022-08-05T05:01:10;168773.91;;;19.07;90.66
45255;BME280;30989;52.078;21.014;2022-08-05T05:03:36;168776.59;;;19.08;90.87
45255;BME280;30989;52.078;21.014;2022-08-05T05:06:01;168815.66;;;19.22;90.42
45255;BME280;30989;52.078;21.014;2022-08-05T05:08:27;168841.22;;;19.32;90.47
45255;BME280;30989;52.078;21.014;2022-08-05T05:10:52;168862.75;;;19.40;90.34
45255;BME280;30989;52.078;21.014;2022-08-05T05:13:20;168878.91;;;19.46;90.59
45255;BME280;30989;52.078;21.014;2022-08-05T05:15:46;168918.00;;;19.61;90.57
45255;BME280;30989;52.078;21.014;2022-08-05T05:18:13;168942.25;;;19.70;89.97
45255;BME280;30989;52.078;21.014;2022-08-05T05:20:42;168973.22;;;19.82;90.11
45255;BME280;30989;52.078;21.014;2022-08-05T05:23:08;168994.75;;;19.90;89.87
45255;BME280;30989;52.078;21.014;2022-08-05T05:25:33;169017.66;;;19.99;89.52
45255;BME280;30989;52.078;21.014;2022-08-05T05:27:59;169047.28;;;20.10;89.26
45255;BME280;30989;52.078;21.014;2022-08-05T05:30:24;169072.88;;;20.19;89.16
45255;BME280;30989;52.078;21.014;2022-08-05T05:32:50;169094.44;;;20.27;88.83
45255;BME280;30989;52.078;21.014;2022-08-05T05:35:16;169125.47;;;20.39;88.31
45255;BME280;30989;52.078;21.014;2022-08-05T05:37:58;169163.19;;;20.53;88.02
45255;BME280;30989;52.078;21.014;2022-08-05T05:40:28;169180.69;;;20.60;87.86
45255;BME280;30989;52.078;21.014;2022-08-05T05:42:54;169191.47;;;20.64;87.61
45255;BME280;30989;52.078;21.014;2022-08-05T05:45:20;169218.41;;;20.74;87.25
45255;BME280;30989;52.078;21.014;2022-08-05T05:47:46;169248.09;;;20.85;86.87
45255;BME280;30989;52.078;21.014;2022-08-05T05:50:14;169277.75;;;20.97;86.62
45255;BME280;30989;52.078;21.014;2022-08-05T05:52:40;169302.00;;;21.06;86.08
45255;BME280;30989;52.078;21.014;2022-08-05T05:55:08;169346.50;;;21.22;85.96
45255;BME280;30989;52.078;21.014;2022-08-05T05:57:35;169385.59;;;21.37;85.40
45255;BME280;30989;52.078;21.014;2022-08-05T06:00:01;169408.50;;;21.46;85.25
45255;BME280;30989;52.078;21.014;2022-08-05T06:02:37;169446.25;;;21.60;84.98
45255;BME280;30989;52.078;21.014;2022-08-05T06:05:05;169486.69;;;21.75;84.51
45255;BME280;30989;52.078;21.014;2022-08-05T06:07:31;169523.09;;;21.89;83.85
45255;BME280;30989;52.078;21.014;2022-08-05T06:09:56;169547.34;;;21.98;83.20
45255;BME280;30989;52.078;21.014;2022-08-05T06:12:22;169577.06;;;22.09;83.26
45255;BME280;30989;52.078;21.014;2022-08-05T06:14:47;169601.31;;;22.18;82.81
45255;BME280;30989;52.078;21.014;2022-08-05T06:17:13;169629.63;;;22.29;82.19
45255;BME280;30989;52.078;21.014;2022-08-05T06:19:38;169659.31;;;22.40;82.42
45255;BME280;30989;52.078;21.014;2022-08-05T06:22:06;169687.63;;;22.51;81.91
45255;BME280;30989;52.078;21.014;2022-08-05T06:24:33;169694.38;;;22.54;81.75
45255;BME280;30989;52.078;21.014;2022-08-05T06:26:58;169745.59;;;22.73;80.21
45255;BME280;30989;52.078;21.014;2022-08-05T06:29:24;169765.88;;;22.80;80.79
45255;BME280;30989;52.078;21.014;2022-08-05T06:31:50;169799.59;;;22.93;80.76
45255;BME280;30989;52.078;21.014;2022-08-05T06:34:16;169841.41;;;23.09;79.17
45255;BME280;30989;52.078;21.014;2022-08-05T06:36:42;169871.09;;;23.20;79.29
45255;BME280;30989;52.078;21.014;2022-08-05T06:39:07;169888.63;;;23.27;78.84
45255;BME280;30989;52.078;21.014;2022-08-05T06:41:33;169904.81;;;23.33;76.34
45255;BME280;30989;52.078;21.014;2022-08-05T06:43:58;169925.06;;;23.40;76.89
45255;BME280;30989;52.078;21.014;2022-08-05T06:46:24;169946.63;;;23.48;76.70
45255;BME280;30989;52.078;21.014;2022-08-05T06:48:49;169957.44;;;23.53;76.36
45255;BME280;30989;52.078;21.014;2022-08-05T06:51:14;169969.63;;;23.57;76.87
45255;BME280;30989;52.078;21.014;2022-08-05T06:53:40;170012.81;;;23.73;76.83
45255;BME280;30989;52.078;21.014;2022-08-05T06:56:06;170024.94;;;23.78;76.15
45255;BME280;30989;52.078;21.014;2022-08-05T06:58:34;170057.31;;;23.90;75.89
45255;BME280;30989;52.078;21.014;2022-08-05T07:01:01;170087.00;;;24.01;75.96
45255;BME280;30989;52.078;21.014;2022-08-05T07:03:27;170104.56;;;24.08;75.44
45255;BME280;30989;52.078;21.014;2022-08-05T07:05:53;170127.50;;;24.17;75.17
45255;BME280;30989;52.078;21.014;2022-08-05T07:08:19;170139.66;;;24.21;74.01
45255;BME280;30989;52.078;21.014;2022-08-05T07:10:47;170147.75;;;24.24;73.24
45255;BME280;30989;52.078;21.014;2022-08-05T07:13:13;170162.66;;;24.30;73.11
45255;BME280;30989;52.078;21.014;2022-08-05T07:15:57;170195.03;;;24.42;71.94
45255;BME280;30989;52.078;21.014;2022-08-05T07:18:41;170193.69;;;24.41;72.21
45255;BME280;30989;52.078;21.014;2022-08-05T07:21:06;170211.22;;;24.48;72.72
45255;BME280;30989;52.078;21.014;2022-08-05T07:23:33;170216.63;;;24.50;72.19
45255;BME280;30989;52.078;21.014;2022-08-05T07:25:58;170243.63;;;24.60;71.90
45255;BME280;30989;52.078;21.014;2022-08-05T07:28:25;170257.13;;;24.65;71.00
45255;BME280;30989;52.078;21.014;2022-08-05T07:30:50;170266.56;;;24.69;71.29
45255;BME280;30989;52.078;21.014;2022-08-05T07:33:16;170305.72;;;24.84;71.62
45255;BME280;30989;52.078;21.014;2022-08-05T07:35:43;170321.94;;;24.90;70.53
45255;BME280;30989;52.078;21.014;2022-08-05T07:38:09;170330.03;;;24.93;69.71
45255;BME280;30989;52.078;21.014;2022-08-05T07:40:34;170342.22;;;24.97;70.39
45255;BME280;30989;52.078;21.014;2022-08-05T07:43:00;170363.84;;;25.05;69.57
45255;BME280;30989;52.078;21.014;2022-08-05T07:45:25;170362.47;;;25.05;69.22
45255;BME280;30989;52.078;21.014;2022-08-05T07:47:51;170385.44;;;25.14;68.39
45255;BME280;30989;52.078;21.014;2022-08-05T07:50:17;170378.69;;;25.11;68.63
45255;BME280;30989;52.078;21.014;2022-08-05T07:52:43;170412.44;;;25.24;68.51
45255;BME280;30989;52.078;21.014;2022-08-05T07:55:09;170428.63;;;25.30;68.76
45255;BME280;30989;52.078;21.014;2022-08-05T07:57:35;170439.44;;;25.34;68.20
45255;BME280;30989;52.078;21.014;2022-08-05T08:00:01;170451.59;;;25.38;67.75
45255;BME280;30989;52.078;21.014;2022-08-05T08:02:37;170467.81;;;25.45;67.51
45255;BME280;30989;52.078;21.014;2022-08-05T08:05:02;170484.00;;;25.51;67.52
45255;BME280;30989;52.078;21.014;2022-08-05T08:07:28;170489.41;;;25.53;68.00
45255;BME280;30989;52.078;21.014;2022-08-05T08:09:53;170494.81;;;25.55;67.55
45255;BME280;30989;52.078;21.014;2022-08-05T08:12:22;170494.81;;;25.55;66.73
45255;BME280;30989;52.078;21.014;2022-08-05T08:14:48;170502.91;;;25.58;66.55
45255;BME280;30989;52.078;21.014;2022-08-05T08:17:13;170515.06;;;25.62;66.34
45255;BME280;30989;52.078;21.014;2022-08-05T08:19:40;170524.56;;;25.66;66.42
45255;BME280;30989;52.078;21.014;2022-08-05T08:22:06;170540.78;;;25.72;66.60
45255;BME280;30989;52.078;21.014;2022-08-05T08:24:33;170551.59;;;25.76;66.09
45255;BME280;30989;52.078;21.014;2022-08-05T08:26:59;170550.22;;;25.76;66.31
45255;BME280;30989;52.078;21.014;2022-08-05T08:29:24;170571.84;;;25.84;65.77
45255;BME280;30989;52.078;21.014;2022-08-05T08:31:50;170575.88;;;25.85;65.67
45255;BME280;30989;52.078;21.014;2022-08-05T08:34:20;170596.16;;;25.93;65.55
45255;BME280;30989;52.078;21.014;2022-08-05T08:36:47;170596.16;;;25.93;64.90
45255;BME280;30989;52.078;21.014;2022-08-05T08:39:13;170621.88;;;26.02;64.89
45255;BME280;30989;52.078;21.014;2022-08-05T08:41:42;170624.56;;;26.04;64.71
45255;BME280;30989;52.078;21.014;2022-08-05T08:44:09;170658.34;;;26.16;64.60
45255;BME280;30989;52.078;21.014;2022-08-05T08:46:35;170686.72;;;26.27;64.55
45255;BME280;30989;52.078;21.014;2022-08-05T08:49:02;170702.97;;;26.33;63.21
45255;BME280;30989;52.078;21.014;2022-08-05T08:51:34;170701.63;;;26.32;63.07
45255;BME280;30989;52.078;21.014;2022-08-05T08:54:00;170708.38;;;26.35;63.53
45255;BME280;30989;52.078;21.014;2022-08-05T08:56:26;170740.81;;;26.47;64.05
45255;BME280;30989;52.078;21.014;2022-08-05T08:58:53;170771.88;;;26.59;63.59
45255;BME280;30989;52.078;21.014;2022-08-05T09:01:19;170789.44;;;26.65;63.63
45255;BME280;30989;52.078;21.014;2022-08-05T09:03:47;170808.34;;;26.73;62.30
45255;BME280;30989;52.078;21.014;2022-08-05T09:06:13;170816.47;;;26.76;62.02
45255;BME280;30989;52.078;21.014;2022-08-05T09:08:38;170844.84;;;26.86;62.25
45255;BME280;30989;52.078;21.014;2022-08-05T09:11:04;170873.25;;;26.97;61.36
45255;BME280;30989;52.078;21.014;2022-08-05T09:13:32;170892.19;;;27.04;60.71
45255;BME280;30989;52.078;21.014;2022-08-05T09:15:58;170911.09;;;27.11;59.67
45255;BME280;30989;52.078;21.014;2022-08-05T09:18:24;170921.91;;;27.15;59.49
45255;BME280;30989;52.078;21.014;2022-08-05T09:20:50;170930.03;;;27.18;60.07
45255;BME280;30989;52.078;21.014;2022-08-05T09:23:16;170970.56;;;27.34;60.02
45255;BME280;30989;52.078;21.014;2022-08-05T09:25:44;171001.66;;;27.45;57.54
45255;BME280;30989;52.078;21.014;2022-08-05T09:28:13;171028.69;;;27.55;58.25
45255;BME280;30989;52.078;21.014;2022-08-05T09:30:44;171057.13;;;27.66;58.75
45255;BME280;30989;52.078;21.014;2022-08-05T09:33:16;171054.44;;;27.65;58.33
45255;BME280;30989;52.078;21.014;2022-08-05T09:36:01;171097.69;;;27.81;58.65
45255;BME280;30989;52.078;21.014;2022-08-05T09:38:27;171132.84;;;27.95;58.56
45255;BME280;30989;52.078;21.014;2022-08-05T09:41:01;171142.28;;;27.98;58.09
45255;BME280;30989;52.078;21.014;2022-08-05T09:43:32;171135.53;;;27.96;58.24
45255;BME280;30989;52.078;21.014;2022-08-05T09:45:58;171151.75;;;28.02;58.41
45255;BME280;30989;52.078;21.014;2022-08-05T09:48:29;171178.81;;;28.12;57.84
45255;BME280;30989;52.078;21.014;2022-08-05T09:50:58;171207.25;;;28.22;57.08
45255;BME280;30989;52.078;21.014;2022-08-05T09:53:25;171189.63;;;28.16;56.18
45255;BME280;30989;52.078;21.014;2022-08-05T09:56:00;171214.00;;;28.25;56.73
45255;BME280;30989;52.078;21.014;2022-08-05T09:58:26;171255.94;;;28.41;57.57
45255;BME280;30989;52.078;21.014;2022-08-05T10:01:05;171297.84;;;28.56;55.85
45255;BME280;30989;52.078;21.014;2022-08-05T10:03:30;171318.13;;;28.64;56.52
45255;BME280;30989;52.078;21.014;2022-08-05T10:06:07;171341.13;;;28.73;54.16
45255;BME280;30989;52.078;21.014;2022-08-05T10:08:35;171339.78;;;28.72;54.04
45255;BME280;30989;52.078;21.014;2022-08-05T10:11:13;171333.00;;;28.70;55.27
45255;BME280;30989;52.078;21.014;2022-08-05T10:13:40;171353.28;;;28.77;54.78
45255;BME280;30989;52.078;21.014;2022-08-05T10:16:06;171379.03;;;28.87;53.48
45255;BME280;30989;52.078;21.014;2022-08-05T10:18:53;171376.34;;;28.86;54.20
45255;BME280;30989;52.078;21.014;2022-08-05T10:21:19;171399.31;;;28.95;55.75
45255;BME280;30989;52.078;21.014;2022-08-05T10:23:44;171412.84;;;29.00;53.41
45255;BME280;30989;52.078;21.014;2022-08-05T10:26:12;171420.97;;;29.03;53.24
45255;BME280;30989;52.078;21.014;2022-08-05T10:28:39;171441.25;;;29.10;53.35
45255;BME280;30989;52.078;21.014;2022-08-05T10:31:05;171472.38;;;29.22;54.67
45255;BME280;30989;52.078;21.014;2022-08-05T10:33:32;171506.19;;;29.35;53.26
45255;BME280;30989;52.078;21.014;2022-08-05T10:35:59;171533.28;;;29.45;53.26
45255;BME280;30989;52.078;21.014;2022-08-05T10:38:27;171559.00;;;29.55;52.22
45255;BME280;30989;52.078;21.014;2022-08-05T10:41:01;171584.69;;;29.64;51.00
45255;BME280;30989;52.078;21.014;2022-08-05T10:46:07;171618.53;;;29.77;50.54
45255;BME280;30989;52.078;21.014;2022-08-05T10:48:38;171652.34;;;29.90;52.37
45255;BME280;30989;52.078;21.014;2022-08-05T10:51:12;171706.53;;;30.10;52.34
45255;BME280;30989;52.078;21.014;2022-08-05T10:53:52;171732.25;;;30.20;52.25
45255;BME280;30989;52.078;21.014;2022-08-05T10:56:20;171763.38;;;30.31;49.58
45255;BME280;30989;52.078;21.014;2022-08-05T11:01:32;171860.88;;;30.68;50.25
45255;BME280;30989;52.078;21.014;2022-08-05T11:06:27;171939.38;;;30.97;48.54
45255;BME280;30989;52.078;21.014;2022-08-05T11:09:16;171988.16;;;31.16;49.63
45255;BME280;30989;52.078;21.014;2022-08-05T11:11:42;172030.19;;;31.31;47.71
45255;BME280;30989;52.078;21.014;2022-08-05T11:14:10;172095.16;;;31.56;48.80
45255;BME280;30989;52.078;21.014;2022-08-05T11:16:36;172176.47;;;31.86;46.27
45255;BME280;30989;52.078;21.014;2022-08-05T11:19:28;172245.53;;;32.12;48.07
45255;BME280;30989;52.078;21.014;2022-08-05T11:21:54;172316.00;;;32.39;46.81
45255;BME280;30989;52.078;21.014;2022-08-05T11:24:20;172356.63;;;32.54;45.82
45255;BME280;30989;52.078;21.014;2022-08-05T11:26:49;172400.00;;;32.70;44.54
45255;BME280;30989;52.078;21.014;2022-08-05T11:29:44;172511.13;;;33.12;43.96
45255;BME280;30989;52.078;21.014;2022-08-05T11:32:28;172623.63;;;33.54;44.84
45255;BME280;30989;52.078;21.014;2022-08-05T11:34:55;172732.09;;;33.94;43.87
45255;BME280;30989;52.078;21.014;2022-08-05T11:37:41;172816.13;;;34.26;41.34
45255;BME280;30989;52.078;21.014;2022-08-05T11:40:07;172883.94;;;34.51;42.10
45255;BME280;30989;52.078;21.014;2022-08-05T11:42:33;172946.31;;;34.75;39.71
45255;BME280;30989;52.078;21.014;2022-08-05T11:45:05;173020.94;;;35.03;40.02
45255;BME280;30989;52.078;21.014;2022-08-05T11:47:32;173159.28;;;35.54;41.10
45255;BME280;30989;52.078;21.014;2022-08-05T11:49:59;173332.91;;;36.20;39.85
45255;BME280;30989;52.078;21.014;2022-08-05T11:52:26;173491.78;;;36.79;38.61
45255;BME280;30989;52.078;21.014;2022-08-05T11:54:53;173609.88;;;37.23;37.71
45255;BME280;30989;52.078;21.014;2022-08-05T11:57:19;173704.84;;;37.59;36.26
45255;BME280;30989;52.078;21.014;2022-08-05T11:59:44;173801.25;;;37.95;36.52
45255;BME280;30989;52.078;21.014;2022-08-05T12:02:10;173866.44;;;38.19;35.39
45255;BME280;30989;52.078;21.014;2022-08-05T12:04:44;173932.94;;;38.44;35.40
45255;BME280;30989;52.078;21.014;2022-08-05T12:07:12;174018.53;;;38.76;34.76
45255;BME280;30989;52.078;21.014;2022-08-05T12:09:40;174025.31;;;38.79;34.94
45255;BME280;30989;52.078;21.014;2022-08-05T12:12:06;173987.28;;;38.64;34.78
45255;BME280;30989;52.078;21.014;2022-08-05T12:14:40;173919.38;;;38.39;34.56
45255;BME280;30989;52.078;21.014;2022-08-05T12:17:13;173939.72;;;38.47;33.71
45255;BME280;30989;52.078;21.014;2022-08-05T12:19:50;174000.88;;;38.69;34.65
45255;BME280;30989;52.078;21.014;2022-08-05T12:22:18;174108.16;;;39.10;33.71
45255;BME280;30989;52.078;21.014;2022-08-05T12:24:46;174180.13;;;39.37;32.13
45255;BME280;30989;52.078;21.014;2022-08-05T12:27:25;174178.78;;;39.36;32.75
45255;BME280;30989;52.078;21.014;2022-08-05T12:29:59;174181.47;;;39.37;33.15
45255;BME280;30989;52.078;21.014;2022-08-05T12:32:25;174220.91;;;39.52;32.34
45255;BME280;30989;52.078;21.014;2022-08-05T12:34:51;174188.28;;;39.40;32.76
45255;BME280;30989;52.078;21.014;2022-08-05T12:37:17;174090.47;;;39.03;31.00
45255;BME280;30989;52.078;21.014;2022-08-05T12:39:44;173995.44;;;38.67;31.50
45255;BME280;30989;52.078;21.014;2022-08-05T12:42:12;173984.59;;;38.63;32.62
45255;BME280;30989;52.078;21.014;2022-08-05T12:44:40;173846.03;;;38.12;32.79
45255;BME280;30989;52.078;21.014;2022-08-05T12:47:05;173692.63;;;37.54;32.22
45255;BME280;30989;52.078;21.014;2022-08-05T12:49:43;173612.59;;;37.24;34.07
45255;BME280;30989;52.078;21.014;2022-08-05T12:52:17;173700.78;;;37.57;33.23
45255;BME280;30989;52.078;21.014;2022-08-05T12:54:45;173863.72;;;38.18;34.97
45255;BME280;30989;52.078;21.014;2022-08-05T12:57:13;174064.69;;;38.93;33.18
45255;BME280;30989;52.078;21.014;2022-08-05T13:02:10;174169.25;;;39.32;32.07